sensor_id;sensor_type;location;lat;lon;timestamp;pressure;altitude;pressure_sealevel;temperature;humidity
12468;BME280;57850;52.922;6.256;2022-10-16T00:00:13;98393.22;;;15.03;100.00
12468;BME280;57850;52.922;6.256;2022-10-16T00:02:39;98405.53;;;15.02;100.00
12468;BME280;57850;52.922;6.256;2022-10-16T00:05:06;98416.00;;;15.12;100.00
12468;BME280;57850;52.922;6.256;2022-10-16T00:07:32;98431.22;;;15.09;100.00
12468;BME280;57850;52.922;6.256;2022-10-16T00:09:59;98429.56;;;15.08;100.00
12468;BME280;57850;52.922;6.256;2022-10-16T00:12:26;98441.06;;;15.07;100.00
12468;BME280;57850;52.922;6.256;2022-10-16T00:14:53;98459.34;;;15.26;100.00
12468;BME280;57850;52.922;6.256;2022-10-16T00:17:20;98497.56;;;15.11;100.00
12468;BME280;57850;52.922;6.256;2022-10-16T00:19:46;98514.56;;;15.16;100.00
12468;BME280;57850;52.922;6.256;2022-10-16T00:22:13;98530.16;;;15.27;100.00
12468;BME280;57850;52.922;6.256;2022-10-16T00:24:39;98552.16;;;15.26;100.00
12468;BME280;57850;52.922;6.256;2022-10-16T00:27:06;98565.84;;;15.20;100.00
12468;BME280;57850;52.922;6.256;2022-10-16T00:29:33;98542.56;;;15.35;100.00
12468;BME280;57850;52.922;6.256;2022-10-16T00:32:00;98582.56;;;15.29;100.00
12468;BME280;57850;52.922;6.256;2022-10-16T00:34:26;98597.53;;;15.28;100.00
12468;BME280;57850;52.922;6.256;2022-10-16T00:36:53;98632.19;;;15.32;100.00
12468;BME280;57850;52.922;6.256;2022-10-16T00:39:20;98624.31;;;15.32;100.00
12468;BME280;57850;52.922;6.256;2022-10-16T00:41:47;98651.88;;;15.28;100.00
12468;BME280;57850;52.922;6.256;2022-10-16T00:44:45;98634.59;;;15.25;100.00
12468;BME280;57850;52.922;6.256;2022-10-16T00:47:17;98652.53;;;15.20;100.00
12468;BME280;57850;52.922;6.256;2022-10-16T00:49:46;98647.84;;;15.33;100.00
12468;BME280;57850;52.922;6.256;2022-10-16T00:52:14;98639.69;;;15.17;100.00
12468;BME280;57850;52.922;6.256;2022-10-16T00:54:41;98659.19;;;15.15;100.00
12468;BME280;57850;52.922;6.256;2022-10-16T00:57:07;98650.88;;;15.19;100.00
12468;BME280;57850;52.922;6.256;2022-10-16T00:59:36;98669.81;;;15.13;100.00
12468;BME280;57850;52.922;6.256;2022-10-16T01:02:06;98649.06;;;15.20;100.00
12468;BME280;57850;52.922;6.256;2022-10-16T01:04:35;98687.81;;;15.37;100.00
12468;BME280;57850;52.922;6.256;2022-10-16T01:07:07;98736.34;;;15.33;100.00
12468;BME280;57850;52.922;6.256;2022-10-16T01:09:45;98765.25;;;15.33;100.00
12468;BME280;57850;52.922;6.256;2022-10-16T01:12:16;98807.56;;;15.30;100.00
12468;BME280;57850;52.922;6.256;2022-10-16T01:14:48;98822.13;;;15.43;100.00
12468;BME280;57850;52.922;6.256;2022-10-16T01:17:26;98840.53;;;15.43;100.00
12468;BME280;57850;52.922;6.256;2022-10-16T01:20:03;98878.97;;;15.44;100.00
12468;BME280;57850;52.922;6.256;2022-10-16T01:22:38;98880.41;;;15.48;100.00
12468;BME280;57850;52.922;6.256;2022-10-16T01:25:11;98906.63;;;15.39;100.00
12468;BME280;57850;52.922;6.256;2022-10-16T01:27:45;98939.94;;;15.38;100.00
12468;BME280;57850;52.922;6.256;2022-10-16T01:30:15;99002.03;;;15.30;100.00
12468;BME280;57850;52.922;6.256;2022-10-16T01:32:48;98992.78;;;15.35;100.00
12468;BME280;57850;52.922;6.256;2022-10-16T01:35:20;99022.56;;;15.45;100.00
12468;BME280;57850;52.922;6.256;2022-10-16T01:37:52;99017.00;;;15.39;100.00
12468;BME280;57850;52.922;6.256;2022-10-16T01:40:24;99076.69;;;15.27;100.00
12468;BME280;57850;52.922;6.256;2022-10-16T01:42:56;99082.84;;;15.37;100.00
12468;BME280;57850;52.922;6.256;2022-10-16T01:45:26;99094.56;;;15.33;100.00
12468;BME280;57850;52.922;6.256;2022-10-16T01:47:55;99099.31;;;15.60;100.00
12468;BME280;57850;52.922;6.256;2022-10-16T01:50:24;99144.69;;;15.41;100.00
12468;BME280;57850;52.922;6.256;2022-10-16T01:52:52;99166.97;;;15.37;100.00
12468;BME280;57850;52.922;6.256;2022-10-16T01:55:24;99141.94;;;15.43;100.00
12468;BME280;57850;52.922;6.256;2022-10-16T01:57:54;99160.47;;;15.52;100.00
12468;BME280;57850;52.922;6.256;2022-10-16T02:00:22;99197.63;;;15.48;100.00
12468;BME280;57850;52.922;6.256;2022-10-16T02:02:53;99171.03;;;15.30;100.00
12468;BME280;57850;52.922;6.256;2022-10-16T02:05:25;99125.78;;;15.27;100.00
12468;BME280;57850;52.922;6.256;2022-10-16T02:07:54;99121.56;;;15.35;100.00
12468;BME280;57850;52.922;6.256;2022-10-16T02:10:21;99133.84;;;15.35;100.00
12468;BME280;57850;52.922;6.256;2022-10-16T02:12:56;99126.38;;;15.30;100.00
12468;BME280;57850;52.922;6.256;2022-10-16T02:15:24;99105.66;;;15.37;100.00
12468;BME280;57850;52.922;6.256;2022-10-16T02:17:51;99078.50;;;15.27;100.00
12468;BME280;57850;52.922;6.256;2022-10-16T02:20:21;99093.38;;;15.37;100.00
12468;BME280;57850;52.922;6.256;2022-10-16T02:22:52;99130.16;;;15.37;100.00
12468;BME280;57850;52.922;6.256;2022-10-16T02:25:24;99138.66;;;15.30;100.00
12468;BME280;57850;52.922;6.256;2022-10-16T02:27:57;99136.91;;;15.19;100.00
12468;BME280;57850;52.922;6.256;2022-10-16T02:30:30;99103.94;;;15.47;100.00
12468;BME280;57850;52.922;6.256;2022-10-16T02:32:59;99132.06;;;15.35;100.00
12468;BME280;57850;52.922;6.256;2022-10-16T02:35:27;99152.75;;;15.29;100.00
12468;BME280;57850;52.922;6.256;2022-10-16T02:37:55;99136.81;;;15.41;100.00
12468;BME280;57850;52.922;6.256;2022-10-16T02:40:24;99120.88;;;15.54;100.00
12468;BME280;57850;52.922;6.256;2022-10-16T02:42:53;99141.13;;;15.42;100.00
12468;BME280;57850;52.922;6.256;2022-10-16T02:45:23;99130.16;;;15.37;100.00
12468;BME280;57850;52.922;6.256;2022-10-16T02:47:50;99133.81;;;15.25;100.00
12468;BME280;57850;52.922;6.256;2022-10-16T02:50:17;99116.19;;;15.37;100.00
12468;BME280;57850;52.922;6.256;2022-10-16T02:52:43;99096.91;;;15.47;100.00
12468;BME280;57850;52.922;6.256;2022-10-16T02:55:10;99090.84;;;15.36;100.00
12468;BME280;57850;52.922;6.256;2022-10-16T02:57:36;99113.47;;;15.27;100.00
12468;BME280;57850;52.922;6.256;2022-10-16T03:00:06;99070.84;;;15.44;100.00
12468;BME280;57850;52.922;6.256;2022-10-16T03:02:34;99072.41;;;15.47;100.00
12468;BME280;57850;52.922;6.256;2022-10-16T03:05:01;99106.69;;;15.25;100.00
12468;BME280;57850;52.922;6.256;2022-10-16T03:07:27;99050.66;;;15.45;100.00
12468;BME280;57850;52.922;6.256;2022-10-16T03:09:55;99015.69;;;15.24;100.00
12468;BME280;57850;52.922;6.256;2022-10-16T03:12:22;99029.25;;;15.29;100.00
12468;BME280;57850;52.922;6.256;2022-10-16T03:14:48;99020.81;;;15.25;100.00
12468;BME280;57850;52.922;6.256;2022-10-16T03:17:15;98998.19;;;15.34;100.00
12468;BME280;57850;52.922;6.256;2022-10-16T03:19:43;98990.69;;;15.29;100.00
12468;BME280;57850;52.922;6.256;2022-10-16T03:22:09;99002.53;;;15.24;100.00
12468;BME280;57850;52.922;6.256;2022-10-16T03:24:36;99001.75;;;15.33;100.00
12468;BME280;57850;52.922;6.256;2022-10-16T03:27:03;98987.00;;;15.41;100.00
12468;BME280;57850;52.922;6.256;2022-10-16T03:29:30;98970.91;;;15.25;100.00
12468;BME280;57850;52.922;6.256;2022-10-16T03:31:57;98956.88;;;15.15;100.00
12468;BME280;57850;52.922;6.256;2022-10-16T03:34:27;98915.63;;;15.36;100.00
12468;BME280;57850;52.922;6.256;2022-10-16T03:36:56;98913.84;;;15.16;100.00
12468;BME280;57850;52.922;6.256;2022-10-16T03:39:23;98883.88;;;15.19;100.00
12468;BME280;57850;52.922;6.256;2022-10-16T03:41:50;98897.72;;;15.21;100.00
12468;BME280;57850;52.922;6.256;2022-10-16T03:44:16;98869.22;;;15.26;100.00
12468;BME280;57850;52.922;6.256;2022-10-16T03:46:43;98858.19;;;15.22;100.00
12468;BME280;57850;52.922;6.256;2022-10-16T03:49:09;98858.19;;;15.22;100.00
12468;BME280;57850;52.922;6.256;2022-10-16T03:51:36;98863.66;;;15.19;100.00
12468;BME280;57850;52.922;6.256;2022-10-16T03:54:04;98844.25;;;15.31;100.00
12468;BME280;57850;52.922;6.256;2022-10-16T03:56:30;98842.28;;;15.24;100.00
12468;BME280;57850;52.922;6.256;2022-10-16T03:58:56;98857.91;;;15.25;100.00
12468;BME280;57850;52.922;6.256;2022-10-16T04:01:23;98832.34;;;15.37;100.00
12468;BME280;57850;52.922;6.256;2022-10-16T04:03:50;98856.38;;;15.32;100.00
12468;BME280;57850;52.922;6.256;2022-10-16T04:06:16;98825.53;;;15.15;100.00
12468;BME280;57850;52.922;6.256;2022-10-16T04:08:43;98794.00;;;15.15;100.00
12468;BME280;57850;52.922;6.256;2022-10-16T04:11:11;98771.28;;;15.05;100.00
12468;BME280;57850;52.922;6.256;2022-10-16T04:13:38;98733.56;;;15.15;100.00
12468;BME280;57850;52.922;6.256;2022-10-16T04:16:05;98725.78;;;15.04;100.00
12468;BME280;57850;52.922;6.256;2022-10-16T04:18:31;98720.81;;;15.01;100.00
12468;BME280;57850;52.922;6.256;2022-10-16T04:21:02;98700.38;;;15.05;100.00
12468;BME280;57850;52.922;6.256;2022-10-16T04:23:28;98680.88;;;15.07;100.00
12468;BME280;57850;52.922;6.256;2022-10-16T04:25:55;98698.56;;;15.05;100.00
12468;BME280;57850;52.922;6.256;2022-10-16T04:28:23;98663.06;;;15.20;100.00
12468;BME280;57850;52.922;6.256;2022-10-16T04:30:50;98710.63;;;15.17;100.00
12468;BME280;57850;52.922;6.256;2022-10-16T04:33:17;98692.50;;;15.24;100.00
12468;BME280;57850;52.922;6.256;2022-10-16T04:35:43;98723.88;;;14.96;100.00
12468;BME280;57850;52.922;6.256;2022-10-16T04:38:09;98681.59;;;15.09;100.00
12468;BME280;57850;52.922;6.256;2022-10-16T04:40:36;98701.78;;;15.18;100.00
12468;BME280;57850;52.922;6.256;2022-10-16T04:43:03;98674.00;;;15.16;100.00
12468;BME280;57850;52.922;6.256;2022-10-16T04:45:31;98679.38;;;15.14;100.00
12468;BME280;57850;52.922;6.256;2022-10-16T04:47:57;98692.66;;;15.22;100.00
12468;BME280;57850;52.922;6.256;2022-10-16T04:50:25;98691.41;;;15.36;100.00
12468;BME280;57850;52.922;6.256;2022-10-16T04:52:52;98671.38;;;15.16;100.00
12468;BME280;57850;52.922;6.256;2022-10-16T04:55:18;98658.34;;;15.05;100.00
12468;BME280;57850;52.922;6.256;2022-10-16T04:57:45;98634.31;;;15.19;100.00
12468;BME280;57850;52.922;6.256;2022-10-16T05:00:12;98624.88;;;15.26;100.00
12468;BME280;57850;52.922;6.256;2022-10-16T05:02:40;98651.84;;;15.18;100.00
12468;BME280;57850;52.922;6.256;2022-10-16T05:05:07;98659.75;;;15.18;100.00
12468;BME280;57850;52.922;6.256;2022-10-16T05:07:33;98641.47;;;15.26;100.00
12468;BME280;57850;52.922;6.256;2022-10-16T05:10:00;98609.41;;;15.13;100.00
12468;BME280;57850;52.922;6.256;2022-10-16T05:12:26;98589.91;;;15.25;100.00
12468;BME280;57850;52.922;6.256;2022-10-16T05:14:53;98609.66;;;15.39;100.00
12468;BME280;57850;52.922;6.256;2022-10-16T05:17:23;98645.06;;;15.35;100.00
12468;BME280;57850;52.922;6.256;2022-10-16T05:19:52;98644.66;;;15.20;100.00
12468;BME280;57850;52.922;6.256;2022-10-16T05:22:18;98630.00;;;15.27;100.00
12468;BME280;57850;52.922;6.256;2022-10-16T05:24:45;98620.75;;;15.23;100.00
12468;BME280;57850;52.922;6.256;2022-10-16T05:27:11;98602.47;;;15.41;100.00
12468;BME280;57850;52.922;6.256;2022-10-16T05:29:44;98644.25;;;15.25;100.00
12468;BME280;57850;52.922;6.256;2022-10-16T05:32:11;98627.38;;;15.27;100.00
12468;BME280;57850;52.922;6.256;2022-10-16T05:34:37;98616.31;;;15.14;100.00
12468;BME280;57850;52.922;6.256;2022-10-16T05:37:05;98587.16;;;15.17;100.00
12468;BME280;57850;52.922;6.256;2022-10-16T05:39:31;98570.00;;;15.23;100.00
12468;BME280;57850;52.922;6.256;2022-10-16T05:41:58;98554.66;;;15.09;100.00
12468;BME280;57850;52.922;6.256;2022-10-16T05:44:25;98542.75;;;15.24;100.00
12468;BME280;57850;52.922;6.256;2022-10-16T05:46:51;98569.13;;;15.32;100.00
12468;BME280;57850;52.922;6.256;2022-10-16T05:49:18;98574.00;;;15.17;100.00
12468;BME280;57850;52.922;6.256;2022-10-16T05:51:44;98548.97;;;15.13;100.00
12468;BME280;57850;52.922;6.256;2022-10-16T05:54:12;98544.00;;;15.10;100.00
12468;BME280;57850;52.922;6.256;2022-10-16T05:56:39;98544.97;;;15.28;100.00
12468;BME280;57850;52.922;6.256;2022-10-16T05:59:05;98587.03;;;15.19;100.00
12468;BME280;57850;52.922;6.256;2022-10-16T06:01:32;98568.22;;;14.94;100.00
12468;BME280;57850;52.922;6.256;2022-10-16T06:03:59;98525.34;;;15.13;100.00
12468;BME280;57850;52.922;6.256;2022-10-16T06:06:27;98528.41;;;15.09;100.00
12468;BME280;57850;52.922;6.256;2022-10-16T06:08:56;98521.63;;;15.16;100.00
12468;BME280;57850;52.922;6.256;2022-10-16T06:11:28;98541.25;;;15.12;100.00
12468;BME280;57850;52.922;6.256;2022-10-16T06:13:57;98529.06;;;15.20;100.00
12468;BME280;57850;52.922;6.256;2022-10-16T06:16:26;98531.44;;;15.04;100.00
12468;BME280;57850;52.922;6.256;2022-10-16T06:18:55;98521.63;;;15.06;100.00
12468;BME280;57850;52.922;6.256;2022-10-16T06:21:24;98489.94;;;15.17;100.00
12468;BME280;57850;52.922;6.256;2022-10-16T06:23:51;98489.69;;;15.01;100.00
12468;BME280;57850;52.922;6.256;2022-10-16T06:26:20;98486.66;;;15.06;100.00
12468;BME280;57850;52.922;6.256;2022-10-16T06:28:49;98458.47;;;14.98;100.00
12468;BME280;57850;52.922;6.256;2022-10-16T06:31:16;98442.94;;;15.14;100.00
12468;BME280;57850;52.922;6.256;2022-10-16T06:33:43;98456.94;;;15.05;100.00
12468;BME280;57850;52.922;6.256;2022-10-16T06:36:12;98442.00;;;15.06;100.00
12468;BME280;57850;52.922;6.256;2022-10-16T06:38:39;98460.78;;;15.11;100.00
12468;BME280;57850;52.922;6.256;2022-10-16T06:41:07;98468.94;;;15.17;100.00
12468;BME280;57850;52.922;6.256;2022-10-16T06:43:35;98494.09;;;15.10;100.00
12468;BME280;57850;52.922;6.256;2022-10-16T06:46:05;98497.28;;;15.04;100.00
12468;BME280;57850;52.922;6.256;2022-10-16T06:48:32;98508.34;;;15.08;100.00
12468;BME280;57850;52.922;6.256;2022-10-16T06:51:01;98489.25;;;15.25;100.00
12468;BME280;57850;52.922;6.256;2022-10-16T06:53:29;98522.56;;;15.24;100.00
12468;BME280;57850;52.922;6.256;2022-10-16T06:55:56;98554.09;;;15.15;100.00
12468;BME280;57850;52.922;6.256;2022-10-16T06:58:23;98564.06;;;15.21;100.00
12468;BME280;57850;52.922;6.256;2022-10-16T07:00:55;98558.75;;;15.40;100.00
12468;BME280;57850;52.922;6.256;2022-10-16T07:03:25;98578.59;;;15.15;100.00
12468;BME280;57850;52.922;6.256;2022-10-16T07:05:51;98550.09;;;15.20;100.00
12468;BME280;57850;52.922;6.256;2022-10-16T07:08:18;98536.50;;;15.44;100.00
12468;BME280;57850;52.922;6.256;2022-10-16T07:10:44;98557.38;;;15.36;100.00
12468;BME280;57850;52.922;6.256;2022-10-16T07:13:11;98579.50;;;15.43;100.00
12468;BME280;57850;52.922;6.256;2022-10-16T07:15:38;98583.09;;;15.42;100.00
12468;BME280;57850;52.922;6.256;2022-10-16T07:18:05;98612.44;;;15.28;100.00
12468;BME280;57850;52.922;6.256;2022-10-16T07:20:33;98588.22;;;15.43;100.00
12468;BME280;57850;52.922;6.256;2022-10-16T07:22:59;98575.22;;;15.42;100.00
12468;BME280;57850;52.922;6.256;2022-10-16T07:25:26;98586.97;;;15.47;100.00
12468;BME280;57850;52.922;6.256;2022-10-16T07:27:52;98583.66;;;15.45;100.00
12468;BME280;57850;52.922;6.256;2022-10-16T07:30:22;98579.53;;;15.33;100.00
12468;BME280;57850;52.922;6.256;2022-10-16T07:32:48;98554.19;;;15.51;100.00
12468;BME280;57850;52.922;6.256;2022-10-16T07:35:15;98566.38;;;15.43;100.00
12468;BME280;57850;52.922;6.256;2022-10-16T07:37:45;98588.66;;;15.48;100.00
12468;BME280;57850;52.922;6.256;2022-10-16T07:40:12;98620.72;;;15.62;100.00
12468;BME280;57850;52.922;6.256;2022-10-16T07:42:39;98659.31;;;15.71;100.00
12468;BME280;57850;52.922;6.256;2022-10-16T07:45:06;98729.19;;;15.73;100.00
12468;BME280;57850;52.922;6.256;2022-10-16T07:47:33;98792.44;;;15.91;100.00
12468;BME280;57850;52.922;6.256;2022-10-16T07:49:59;98817.47;;;16.04;100.00
12468;BME280;57850;52.922;6.256;2022-10-16T07:52:26;98883.13;;;16.06;100.00
12468;BME280;57850;52.922;6.256;2022-10-16T07:54:53;98946.25;;;15.96;100.00
12468;BME280;57850;52.922;6.256;2022-10-16T07:57:20;98991.66;;;15.98;100.00
12468;BME280;57850;52.922;6.256;2022-10-16T07:59:47;99033.06;;;15.96;100.00
12468;BME280;57850;52.922;6.256;2022-10-16T08:02:13;99026.06;;;16.26;100.00
12468;BME280;57850;52.922;6.256;2022-10-16T08:04:40;99122.03;;;16.12;100.00
12468;BME280;57850;52.922;6.256;2022-10-16T08:07:07;99176.44;;;16.12;100.00
12468;BME280;57850;52.922;6.256;2022-10-16T08:09:34;99234.53;;;15.99;100.00
12468;BME280;57850;52.922;6.256;2022-10-16T08:12:02;99222.75;;;15.93;100.00
12468;BME280;57850;52.922;6.256;2022-10-16T08:14:29;99172.59;;;15.95;100.00
12468;BME280;57850;52.922;6.256;2022-10-16T08:16:55;99190.91;;;15.96;100.00
12468;BME280;57850;52.922;6.256;2022-10-16T08:19:22;99192.97;;;16.23;100.00
12468;BME280;57850;52.922;6.256;2022-10-16T08:21:48;99260.31;;;16.26;100.00
12468;BME280;57850;52.922;6.256;2022-10-16T08:24:15;99251.03;;;16.73;100.00
12468;BME280;57850;52.922;6.256;2022-10-16T08:26:41;99443.94;;;17.77;100.00
12468;BME280;57850;52.922;6.256;2022-10-16T08:29:09;99610.84;;;17.69;100.00
12468;BME280;57850;52.922;6.256;2022-10-16T08:31:36;99613.53;;;16.85;100.00
12468;BME280;57850;52.922;6.256;2022-10-16T08:34:02;99625.28;;;17.33;100.00
12468;BME280;57850;52.922;6.256;2022-10-16T08:36:29;99677.41;;;18.03;100.00
12468;BME280;57850;52.922;6.256;2022-10-16T08:38:55;99828.56;;;18.88;100.00
12468;BME280;57850;52.922;6.256;2022-10-16T08:41:55;99948.66;;;17.67;100.00
12468;BME280;57850;52.922;6.256;2022-10-16T08:44:37;99901.81;;;17.60;100.00
12468;BME280;57850;52.922;6.256;2022-10-16T08:47:13;99811.09;;;18.04;100.00
12468;BME280;57850;52.922;6.256;2022-10-16T08:49:53;99931.63;;;18.67;100.00
12468;BME280;57850;52.922;6.256;2022-10-16T08:52:22;100101.50;;;18.69;100.00
12468;BME280;57850;52.922;6.256;2022-10-16T08:54:51;100159.06;;;19.40;100.00
12468;BME280;57850;52.922;6.256;2022-10-16T08:57:22;100400.09;;;19.80;100.00
12468;BME280;57850;52.922;6.256;2022-10-16T08:59:53;100461.09;;;20.64;100.00
12468;BME280;57850;52.922;6.256;2022-10-16T09:02:32;100615.44;;;20.36;100.00
12468;BME280;57850;52.922;6.256;2022-10-16T09:05:22;100599.22;;;19.85;100.00
12468;BME280;57850;52.922;6.256;2022-10-16T09:08:00;100504.69;;;20.40;100.00
12468;BME280;57850;52.922;6.256;2022-10-16T09:10:38;100666.53;;;20.38;100.00
12468;BME280;57850;52.922;6.256;2022-10-16T09:13:17;100722.31;;;21.13;100.00
12468;BME280;57850;52.922;6.256;2022-10-16T09:15:50;100792.91;;;20.71;100.00
12468;BME280;57850;52.922;6.256;2022-10-16T09:18:23;100768.31;;;21.66;100.00
12468;BME280;57850;52.922;6.256;2022-10-16T09:20:57;100929.22;;;21.79;100.00
12468;BME280;57850;52.922;6.256;2022-10-16T09:23:27;100933.19;;;21.20;100.00
12468;BME280;57850;52.922;6.256;2022-10-16T09:25:55;100993.66;;;20.47;100.00
12468;BME280;57850;52.922;6.256;2022-10-16T09:28:23;101013.72;;;20.62;100.00
12468;BME280;57850;52.922;6.256;2022-10-16T09:30:52;100970.31;;;21.09;100.00
12468;BME280;57850;52.922;6.256;2022-10-16T09:33:20;101046.38;;;20.97;100.00
12468;BME280;57850;52.922;6.256;2022-10-16T09:35:50;101061.81;;;20.57;100.00
12468;BME280;57850;52.922;6.256;2022-10-16T09:38:25;101049.44;;;20.09;100.00
12468;BME280;57850;52.922;6.256;2022-10-16T09:40:53;101057.50;;;20.44;100.00
12468;BME280;57850;52.922;6.256;2022-10-16T09:43:23;101044.09;;;20.58;100.00
12468;BME280;57850;52.922;6.256;2022-10-16T09:45:57;101099.94;;;19.95;100.00
12468;BME280;57850;52.922;6.256;2022-10-16T09:48:26;101084.78;;;19.97;100.00
12468;BME280;57850;52.922;6.256;2022-10-16T09:50:56;101027.81;;;19.78;100.00
12468;BME280;57850;52.922;6.256;2022-10-16T09:53:23;101042.69;;;20.41;100.00
12468;BME280;57850;52.922;6.256;2022-10-16T09:55:51;101074.38;;;20.66;100.00
12468;BME280;57850;52.922;6.256;2022-10-16T09:58:21;101150.66;;;21.45;100.00
12468;BME280;57850;52.922;6.256;2022-10-16T10:00:52;101184.53;;;20.47;100.00
12468;BME280;57850;52.922;6.256;2022-10-16T10:03:32;101100.69;;;21.04;100.00
12468;BME280;57850;52.922;6.256;2022-10-16T10:06:01;101209.59;;;22.07;100.00
12468;BME280;57850;52.922;6.256;2022-10-16T10:08:30;101214.66;;;20.46;100.00
12468;BME280;57850;52.922;6.256;2022-10-16T10:10:56;101209.09;;;20.61;100.00
12468;BME280;57850;52.922;6.256;2022-10-16T10:13:25;101204.91;;;19.58;100.00
12468;BME280;57850;52.922;6.256;2022-10-16T10:15:52;101173.00;;;20.71;100.00
12468;BME280;57850;52.922;6.256;2022-10-16T10:18:22;101164.91;;;19.75;100.00
12468;BME280;57850;52.922;6.256;2022-10-16T10:20:59;101199.72;;;21.28;100.00
12468;BME280;57850;52.922;6.256;2022-10-16T10:23:27;101214.31;;;20.87;100.00
12468;BME280;57850;52.922;6.256;2022-10-16T10:26:01;101254.72;;;20.66;100.00
12468;BME280;57850;52.922;6.256;2022-10-16T10:28:43;101276.59;;;21.65;100.00
12468;BME280;57850;52.922;6.256;2022-10-16T10:31:18;101264.84;;;21.21;100.00
12468;BME280;57850;52.922;6.256;2022-10-16T10:33:52;101325.91;;;21.45;100.00
12468;BME280;57850;52.922;6.256;2022-10-16T10:36:28;101331.59;;;20.92;100.00
12468;BME280;57850;52.922;6.256;2022-10-16T10:38:58;101308.28;;;21.44;100.00
12468;BME280;57850;52.922;6.256;2022-10-16T10:41:56;101370.38;;;21.78;100.00
12468;BME280;57850;52.922;6.256;2022-10-16T10:44:37;101412.31;;;21.85;100.00
12468;BME280;57850;52.922;6.256;2022-10-16T10:47:10;101439.34;;;22.27;100.00
12468;BME280;57850;52.922;6.256;2022-10-16T10:49:51;101489.56;;;22.19;100.00
12468;BME280;57850;52.922;6.256;2022-10-16T10:52:41;101438.66;;;20.78;100.00
12468;BME280;57850;52.922;6.256;2022-10-16T10:55:15;101421.00;;;20.00;100.00
12468;BME280;57850;52.922;6.256;2022-10-16T10:57:57;101425.50;;;20.12;100.00
12468;BME280;57850;52.922;6.256;2022-10-16T11:00:30;101425.72;;;19.82;100.00
12468;BME280;57850;52.922;6.256;2022-10-16T11:03:11;101467.28;;;20.48;100.00
12468;BME280;57850;52.922;6.256;2022-10-16T11:05:41;101458.59;;;19.65;100.00
12468;BME280;57850;52.922;6.256;2022-10-16T11:08:14;101503.06;;;20.80;100.00
12468;BME280;57850;52.922;6.256;2022-10-16T11:10:46;101487.31;;;19.71;100.00
12468;BME280;57850;52.922;6.256;2022-10-16T11:13:21;101496.88;;;21.55;100.00
12468;BME280;57850;52.922;6.256;2022-10-16T11:15:52;101529.72;;;21.04;100.00
12468;BME280;57850;52.922;6.256;2022-10-16T11:18:27;101518.41;;;21.88;100.00
12468;BME280;57850;52.922;6.256;2022-10-16T11:20:57;101538.84;;;21.63;100.00
12468;BME280;57850;52.922;6.256;2022-10-16T11:23:30;101573.63;;;22.09;100.00
12468;BME280;57850;52.922;6.256;2022-10-16T11:26:02;101580.06;;;22.30;100.00
12468;BME280;57850;52.922;6.256;2022-10-16T11:28:34;101618.16;;;23.92;100.00
12468;BME280;57850;52.922;6.256;2022-10-16T11:31:08;101639.09;;;23.52;100.00
12468;BME280;57850;52.922;6.256;2022-10-16T11:33:40;101644.59;;;22.68;100.00
12468;BME280;57850;52.922;6.256;2022-10-16T11:36:12;101648.41;;;23.46;100.00
12468;BME280;57850;52.922;6.256;2022-10-16T11:38:49;101665.19;;;23.36;100.00
12468;BME280;57850;52.922;6.256;2022-10-16T11:41:24;101670.81;;;22.49;100.00
12468;BME280;57850;52.922;6.256;2022-10-16T11:44:02;101667.47;;;22.94;100.00
12468;BME280;57850;52.922;6.256;2022-10-16T11:46:31;101661.41;;;23.84;100.00
12468;BME280;57850;52.922;6.256;2022-10-16T11:49:05;101669.06;;;22.97;100.00
12468;BME280;57850;52.922;6.256;2022-10-16T11:51:38;101679.59;;;22.62;100.00
12468;BME280;57850;52.922;6.256;2022-10-16T11:54:16;101669.19;;;23.30;100.00
12468;BME280;57850;52.922;6.256;2022-10-16T11:56:48;101670.03;;;23.77;100.00
12468;BME280;57850;52.922;6.256;2022-10-16T11:59:22;101698.78;;;21.93;100.00
12468;BME280;57850;52.922;6.256;2022-10-16T12:01:54;101715.41;;;20.78;100.00
12468;BME280;57850;52.922;6.256;2022-10-16T12:04:27;101708.38;;;21.31;100.00
12468;BME280;57850;52.922;6.256;2022-10-16T12:07:03;101702.59;;;23.34;100.00
12468;BME280;57850;52.922;6.256;2022-10-16T12:09:37;101710.25;;;22.31;100.00
12468;BME280;57850;52.922;6.256;2022-10-16T12:12:04;101701.88;;;22.74;100.00
12468;BME280;57850;52.922;6.256;2022-10-16T12:14:37;101683.22;;;23.32;100.00
12468;BME280;57850;52.922;6.256;2022-10-16T12:17:23;101686.75;;;23.90;100.00
12468;BME280;57850;52.922;6.256;2022-10-16T12:19:59;101687.88;;;22.83;100.00
12468;BME280;57850;52.922;6.256;2022-10-16T12:22:28;101695.22;;;23.38;100.00
12468;BME280;57850;52.922;6.256;2022-10-16T12:24:57;101684.59;;;24.39;100.00
12468;BME280;57850;52.922;6.256;2022-10-16T12:27:28;101706.44;;;23.54;100.00
12468;BME280;57850;52.922;6.256;2022-10-16T12:29:57;101723.78;;;22.16;100.00
12468;BME280;57850;52.922;6.256;2022-10-16T12:32:29;101714.41;;;21.85;100.00
12468;BME280;57850;52.922;6.256;2022-10-16T12:34:57;101727.91;;;21.17;100.00
12468;BME280;57850;52.922;6.256;2022-10-16T12:37:26;101707.56;;;22.44;100.00
12468;BME280;57850;52.922;6.256;2022-10-16T12:39:55;101733.41;;;21.14;100.00
12468;BME280;57850;52.922;6.256;2022-10-16T12:42:33;101721.53;;;22.10;100.00
12468;BME280;57850;52.922;6.256;2022-10-16T12:45:01;101705.78;;;22.68;100.00
12468;BME280;57850;52.922;6.256;2022-10-16T12:47:47;101726.75;;;22.97;100.00
12468;BME280;57850;52.922;6.256;2022-10-16T12:50:26;101701.97;;;23.66;100.00
12468;BME280;57850;52.922;6.256;2022-10-16T12:52:54;101712.47;;;23.45;100.00
12468;BME280;57850;52.922;6.256;2022-10-16T12:55:21;101710.09;;;23.64;100.00
12468;BME280;57850;52.922;6.256;2022-10-16T12:58:03;101710.72;;;23.33;100.00
12468;BME280;57850;52.922;6.256;2022-10-16T13:00:40;101699.00;;;24.04;100.00